createdAt,value
2022-10-13T00:00:41.885Z,12.05
2022-10-13T00:03:10.482Z,12.02
2022-10-13T00:05:43.222Z,12.02
2022-10-13T00:08:13.239Z,11.99
2022-10-13T00:10:42.172Z,12.05
2022-10-13T00:13:10.557Z,12.01
2022-10-13T00:15:39.708Z,12.00
2022-10-13T00:18:07.984Z,11.94
2022-10-13T00:20:36.669Z,11.93
2022-10-13T00:23:04.638Z,11.86
2022-10-13T00:25:34.169Z,11.86
2022-10-13T00:28:02.107Z,11.82
2022-10-13T00:30:29.973Z,11.87
2022-10-13T00:32:57.795Z,11.84
2022-10-13T00:35:25.711Z,11.77
2022-10-13T00:37:54.466Z,11.79
2022-10-13T00:40:22.288Z,11.78
2022-10-13T00:42:51.667Z,11.77
2022-10-13T00:45:24.986Z,11.81
2022-10-13T00:47:57.112Z,11.76
2022-10-13T00:50:29.137Z,11.77
2022-10-13T00:52:59.081Z,11.79
2022-10-13T00:55:30.645Z,11.77
2022-10-13T00:58:05.146Z,11.82
2022-10-13T01:00:34.590Z,11.82
2022-10-13T01:03:02.914Z,11.82
2022-10-13T01:05:31.552Z,11.82
2022-10-13T01:08:00.881Z,11.75
2022-10-13T01:10:40.125Z,11.72
2022-10-13T01:13:18.653Z,11.68
2022-10-13T01:15:54.012Z,11.62
2022-10-13T01:18:28.344Z,11.59
2022-10-13T01:21:07.569Z,11.55
2022-10-13T01:24:21.700Z,11.45
2022-10-13T01:27:19.239Z,11.31
2022-10-13T01:30:13.994Z,11.23
2022-10-13T01:33:05.711Z,11.19
2022-10-13T01:35:45.472Z,11.13
2022-10-13T01:38:21.790Z,11.08
2022-10-13T01:41:01.223Z,11.04
2022-10-13T01:43:32.425Z,11.02
2022-10-13T01:46:07.510Z,10.97
2022-10-13T01:48:39.360Z,10.91
2022-10-13T01:51:10.566Z,10.79
2022-10-13T01:53:39.682Z,10.86
2022-10-13T01:56:08.057Z,10.75
2022-10-13T01:58:37.933Z,10.68
2022-10-13T02:01:19.591Z,10.66
2022-10-13T02:03:59.497Z,10.66
2022-10-13T02:06:33.855Z,10.58
2022-10-13T02:09:09.073Z,10.55
2022-10-13T02:11:37.261Z,10.53
2022-10-13T02:14:11.405Z,10.58
2022-10-13T02:16:43.537Z,10.54
2022-10-13T02:19:14.084Z,10.53
2022-10-13T02:21:42.527Z,10.54
2022-10-13T02:24:11.056Z,10.55
2022-10-13T02:26:39.682Z,10.55
2022-10-13T02:29:11.663Z,10.56
2022-10-13T02:31:41.411Z,10.53
2022-10-13T02:34:09.403Z,10.51
2022-10-13T02:36:37.858Z,10.55
2022-10-13T02:39:06.284Z,10.61
2022-10-13T02:41:34.464Z,10.67
2022-10-13T02:44:02.241Z,10.65
2022-10-13T02:46:30.278Z,10.66
2022-10-13T02:48:59.575Z,10.65
2022-10-13T02:51:27.358Z,10.65
2022-10-13T02:53:55.171Z,10.64
2022-10-13T02:56:22.955Z,10.72
2022-10-13T02:58:50.717Z,10.62
2022-10-13T03:01:18.557Z,10.70
2022-10-13T03:03:46.326Z,10.76
2022-10-13T03:06:15.485Z,10.77
2022-10-13T03:08:43.444Z,10.74
2022-10-13T03:11:11.215Z,10.75
2022-10-13T03:13:38.995Z,10.78
2022-10-13T03:16:07.588Z,10.84
2022-10-13T03:18:35.761Z,10.83
2022-10-13T03:21:05.599Z,10.85
2022-10-13T03:23:34.987Z,10.82
2022-10-13T03:26:04.432Z,10.88
2022-10-13T03:28:32.235Z,10.90
2022-10-13T03:31:03.977Z,10.92
2022-10-13T03:33:31.774Z,10.88
2022-10-13T03:36:01.369Z,10.88
2022-10-13T03:38:30.034Z,10.85
2022-10-13T03:40:59.389Z,10.78
2022-10-13T03:43:27.149Z,10.70
2022-10-13T03:45:58.345Z,10.71
2022-10-13T03:48:26.141Z,10.69
2022-10-13T03:50:54.020Z,10.64
2022-10-13T03:53:22.258Z,10.65
2022-10-13T03:55:51.301Z,10.68
2022-10-13T03:58:21.199Z,10.72
2022-10-13T04:00:49.278Z,10.71
2022-10-13T04:03:17.913Z,10.72
2022-10-13T04:05:45.730Z,10.76
2022-10-13T04:08:13.768Z,10.75
2022-10-13T04:10:42.118Z,10.75
2022-10-13T04:13:10.088Z,10.78
2022-10-13T04:15:39.819Z,10.79
2022-10-13T04:18:09.503Z,10.85
2022-10-13T04:20:39.419Z,10.86
2022-10-13T04:23:08.204Z,10.85
2022-10-13T04:25:36.677Z,10.85
2022-10-13T04:28:04.764Z,10.91
2022-10-13T04:30:34.294Z,10.93
2022-10-13T04:33:03.893Z,10.91
2022-10-13T04:35:31.934Z,10.98
2022-10-13T04:37:59.745Z,10.96
2022-10-13T04:40:28.173Z,10.88
2022-10-13T04:42:55.999Z,10.88
2022-10-13T04:45:24.058Z,10.83
2022-10-13T04:47:52.226Z,10.80
2022-10-13T04:50:21.634Z,10.80
2022-10-13T04:52:49.467Z,10.77
2022-10-13T04:55:17.474Z,10.75
2022-10-13T04:57:45.341Z,10.81
2022-10-13T05:00:14.320Z,10.76
2022-10-13T05:02:42.154Z,10.72
2022-10-13T05:05:11.146Z,10.69
2022-10-13T05:07:40.382Z,10.71
2022-10-13T05:10:08.866Z,10.68
2022-10-13T05:12:37.115Z,10.64
2022-10-13T05:15:05.519Z,10.66
2022-10-13T05:17:35.517Z,10.69
2022-10-13T05:20:03.905Z,10.69
2022-10-13T05:22:31.804Z,10.71
2022-10-13T05:25:00.944Z,10.70
2022-10-13T05:27:28.749Z,10.71
2022-10-13T05:29:56.604Z,10.73
2022-10-13T05:32:24.376Z,10.73
2022-10-13T05:34:52.135Z,10.78
2022-10-13T05:37:22.524Z,10.83
2022-10-13T05:39:50.818Z,10.83
2022-10-13T05:42:20.134Z,10.87
2022-10-13T05:44:48.193Z,10.90
2022-10-13T05:47:15.982Z,10.89
2022-10-13T05:49:43.766Z,10.87
2022-10-13T05:52:13.719Z,10.95
2022-10-13T05:54:44.713Z,10.98
2022-10-13T05:57:16.301Z,10.97
2022-10-13T05:59:50.383Z,10.88
2022-10-13T06:02:20.563Z,10.89
2022-10-13T06:04:51.961Z,10.94
2022-10-13T06:07:20.555Z,10.93
2022-10-13T06:09:48.592Z,10.95
2022-10-13T06:12:16.646Z,11.01
2022-10-13T06:14:45.930Z,11.00
2022-10-13T06:17:13.805Z,11.05
2022-10-13T06:19:41.687Z,11.08
2022-10-13T06:22:10.130Z,11.15
2022-10-13T06:24:38.445Z,11.22
2022-10-13T06:27:06.331Z,11.28
2022-10-13T06:29:34.428Z,11.26
2022-10-13T06:32:03.708Z,11.31
2022-10-13T06:34:31.770Z,11.33
2022-10-13T06:36:59.911Z,11.29
2022-10-13T06:39:27.733Z,11.34
2022-10-13T06:41:55.614Z,11.41
2022-10-13T06:44:23.511Z,11.45
2022-10-13T06:46:51.361Z,11.42
2022-10-13T06:49:21.099Z,11.44
2022-10-13T06:51:49.177Z,11.48
2022-10-13T06:54:17.404Z,11.48
2022-10-13T06:56:45.302Z,11.51
2022-10-13T06:59:13.288Z,11.56
2022-10-13T07:01:41.846Z,11.54
2022-10-13T07:04:09.922Z,11.62
2022-10-13T07:06:39.267Z,11.68
2022-10-13T07:09:08.358Z,11.70
2022-10-13T07:11:36.510Z,11.81
2022-10-13T07:14:04.545Z,12.02
2022-10-13T07:16:33.182Z,12.13
2022-10-13T07:19:01.014Z,12.16
2022-10-13T07:21:28.836Z,12.24
2022-10-13T07:23:58.140Z,12.30
2022-10-13T07:26:26.152Z,12.30
2022-10-13T07:28:54.325Z,12.33
2022-10-13T07:31:22.578Z,12.30
2022-10-13T07:33:51.555Z,12.33
2022-10-13T07:36:20.138Z,12.41
2022-10-13T07:38:48.498Z,12.44
2022-10-13T07:41:17.793Z,12.40
2022-10-13T07:43:45.971Z,12.57
2022-10-13T07:46:14.729Z,12.70
2022-10-13T07:48:43.074Z,12.69
2022-10-13T07:51:14.224Z,12.73
2022-10-13T07:53:43.797Z,12.86
2022-10-13T07:56:13.339Z,12.92
2022-10-13T07:58:44.700Z,13.03
2022-10-13T08:01:13.270Z,13.06
2022-10-13T08:03:44.129Z,13.16
2022-10-13T08:06:15.796Z,13.14
2022-10-13T08:08:43.684Z,13.25
2022-10-13T08:11:17.342Z,13.29
2022-10-13T08:13:49.966Z,13.31
2022-10-13T08:16:18.358Z,13.25
2022-10-13T08:18:46.938Z,13.30
2022-10-13T08:24:06.544Z,13.47
2022-10-13T08:26:34.757Z,13.60
2022-10-13T08:31:53.111Z,13.76
2022-10-13T08:34:22.135Z,13.87
2022-10-13T08:36:53.165Z,14.00
2022-10-13T08:39:22.661Z,13.97
2022-10-13T08:41:51.043Z,14.02
2022-10-13T08:47:23.748Z,14.11
2022-10-13T08:49:55.381Z,14.24
2022-10-13T08:52:29.447Z,14.13
2022-10-13T08:54:58.522Z,14.23
2022-10-13T08:57:26.549Z,14.33
2022-10-13T08:59:55.861Z,14.44
2022-10-13T09:02:27.203Z,14.56
2022-10-13T09:04:55.415Z,14.67
2022-10-13T09:07:27.874Z,14.64
2022-10-13T09:09:57.150Z,14.69
2022-10-13T09:12:26.501Z,14.72
2022-10-13T09:15:06.523Z,14.88
2022-10-13T09:17:35.980Z,14.92
2022-10-13T09:20:07.844Z,15.04
2022-10-13T09:22:37.993Z,15.09
2022-10-13T09:25:19.999Z,15.26
2022-10-13T09:27:50.530Z,15.26
2022-10-13T09:30:33.359Z,15.45
2022-10-13T09:33:17.689Z,15.64
2022-10-13T09:35:47.511Z,15.69
2022-10-13T09:38:18.401Z,15.65
2022-10-13T09:40:58.940Z,15.86
2022-10-13T09:43:31.699Z,16.00
2022-10-13T09:46:02.429Z,16.16
2022-10-13T09:48:33.978Z,16.18
2022-10-13T09:51:02.894Z,15.93
2022-10-13T09:53:33.966Z,16.28
2022-10-13T09:56:11.649Z,16.53
2022-10-13T09:58:47.041Z,16.42
2022-10-13T10:01:24.290Z,16.60
2022-10-13T10:03:52.903Z,16.73
2022-10-13T10:06:24.059Z,16.63
2022-10-13T10:09:03.400Z,16.54
2022-10-13T10:11:38.122Z,16.71
2022-10-13T10:14:17.112Z,16.86
2022-10-13T10:16:55.136Z,17.08
2022-10-13T10:19:30.994Z,17.02
2022-10-13T10:22:07.468Z,16.93
2022-10-13T10:24:46.789Z,16.87
2022-10-13T10:29:58.616Z,16.96
2022-10-13T10:32:40.239Z,16.84
2022-10-13T10:35:15.352Z,16.79
2022-10-13T10:37:59.029Z,16.91
2022-10-13T10:40:37.189Z,16.92
2022-10-13T10:43:36.048Z,17.14
2022-10-13T10:46:07.524Z,17.11
2022-10-13T10:48:40.410Z,17.18
2022-10-13T10:51:09.964Z,17.10
2022-10-13T10:53:46.661Z,17.13
2022-10-13T10:56:20.749Z,17.12
2022-10-13T10:58:55.851Z,17.11
2022-10-13T11:01:32.544Z,17.23
2022-10-13T11:04:26.182Z,17.28
2022-10-13T11:06:54.256Z,17.39
2022-10-13T11:09:56.825Z,17.55
2022-10-13T11:12:24.831Z,17.47
2022-10-13T11:15:08.411Z,17.52
2022-10-13T11:17:38.198Z,17.53
2022-10-13T11:20:59.324Z,17.68
2022-10-13T11:23:35.263Z,17.69
2022-10-13T11:26:43.529Z,17.69
2022-10-13T11:29:20.829Z,17.66
2022-10-13T11:31:52.397Z,17.58
2022-10-13T11:34:33.484Z,17.45
2022-10-13T11:37:04.079Z,17.34
2022-10-13T11:40:04.735Z,17.47
2022-10-13T11:43:09.756Z,17.55
2022-10-13T11:46:03.939Z,17.53
2022-10-13T11:49:01.510Z,17.60
2022-10-13T11:51:43.553Z,17.69
2022-10-13T11:54:25.543Z,17.89
2022-10-13T11:56:55.257Z,18.01
2022-10-13T11:59:26.638Z,18.26
2022-10-13T12:01:56.239Z,18.33
2022-10-13T12:04:26.807Z,18.40
2022-10-13T12:06:58.448Z,18.43
2022-10-13T12:09:28.447Z,18.45
2022-10-13T12:12:13.782Z,18.30
2022-10-13T12:14:44.639Z,18.38
2022-10-13T12:17:25.095Z,18.47
2022-10-13T12:19:53.729Z,18.41
2022-10-13T12:22:22.065Z,18.47
2022-10-13T12:25:01.544Z,18.44
2022-10-13T12:27:33.626Z,18.43
2022-10-13T12:30:01.857Z,18.54
2022-10-13T12:32:31.149Z,18.51
2022-10-13T12:35:11.998Z,18.50
2022-10-13T12:37:40.864Z,18.30
2022-10-13T12:40:15.509Z,18.44
2022-10-13T12:42:44.978Z,18.46
2022-10-13T12:45:17.201Z,18.48
2022-10-13T12:47:50.710Z,18.50
2022-10-13T12:50:38.386Z,18.49
2022-10-13T12:53:15.976Z,18.58
2022-10-13T12:55:51.787Z,18.57
2022-10-13T12:58:23.389Z,18.63
2022-10-13T13:01:08.977Z,18.61
2022-10-13T13:03:38.818Z,18.52
2022-10-13T13:06:21.685Z,18.59
2022-10-13T13:09:09.016Z,18.51
2022-10-13T13:11:39.962Z,18.44
2022-10-13T13:14:25.568Z,18.44
2022-10-13T13:17:17.549Z,18.37
2022-10-13T13:19:57.774Z,18.22
2022-10-13T13:22:26.440Z,18.11
2022-10-13T13:24:54.574Z,18.13
2022-10-13T13:27:27.155Z,18.04
2022-10-13T13:29:56.049Z,18.02
2022-10-13T13:32:26.517Z,18.06
2022-10-13T13:34:54.819Z,18.09
2022-10-13T13:37:32.257Z,18.09
2022-10-13T13:40:01.571Z,18.04
2022-10-13T13:42:31.251Z,17.93
2022-10-13T13:44:59.235Z,17.95
2022-10-13T13:47:29.809Z,18.09
2022-10-13T13:49:58.266Z,17.98
2022-10-13T13:52:26.623Z,18.02
2022-10-13T13:54:56.256Z,18.00
2022-10-13T13:57:24.164Z,18.04
2022-10-13T13:59:53.385Z,18.08
2022-10-13T14:02:23.319Z,18.15
2022-10-13T14:04:51.185Z,18.06
2022-10-13T14:07:19.472Z,18.02
2022-10-13T14:09:47.870Z,17.99
2022-10-13T14:12:15.921Z,17.98
2022-10-13T14:14:44.103Z,17.93
2022-10-13T14:17:13.513Z,18.00
2022-10-13T14:19:43.275Z,18.00
2022-10-13T14:22:11.269Z,18.01
2022-10-13T14:24:39.499Z,17.99
2022-10-13T14:27:09.131Z,18.06
2022-10-13T14:29:37.413Z,18.09
2022-10-13T14:32:05.914Z,18.13
2022-10-13T14:34:35.261Z,18.12
2022-10-13T14:37:03.340Z,18.12
2022-10-13T14:39:31.417Z,18.24
2022-10-13T14:41:59.300Z,18.32
2022-10-13T14:44:27.174Z,18.36
2022-10-13T14:46:55.131Z,18.39
2022-10-13T14:49:23.191Z,18.46
2022-10-13T14:51:52.487Z,18.42
2022-10-13T14:54:20.674Z,18.33
2022-10-13T14:56:48.576Z,18.30
2022-10-13T14:59:16.481Z,18.25
2022-10-13T15:01:44.672Z,18.29
2022-10-13T15:04:12.712Z,18.33
2022-10-13T15:06:41.004Z,18.32
2022-10-13T15:09:12.426Z,18.32
2022-10-13T15:11:40.514Z,18.31
2022-10-13T15:14:09.850Z,18.20
2022-10-13T15:16:38.153Z,18.10
2022-10-13T15:19:06.796Z,18.14
2022-10-13T15:21:34.781Z,18.16
2022-10-13T15:24:02.827Z,18.12
2022-10-13T15:26:32.475Z,18.09
2022-10-13T15:29:00.522Z,18.06
2022-10-13T15:31:31.112Z,18.05
2022-10-13T15:33:59.063Z,18.01
2022-10-13T15:36:27.589Z,17.99
2022-10-13T15:38:55.690Z,17.96
2022-10-13T15:41:25.544Z,17.92
2022-10-13T15:43:54.773Z,17.90
2022-10-13T15:46:24.346Z,17.92
2022-10-13T15:48:53.317Z,17.81
2022-10-13T15:51:24.174Z,17.75
2022-10-13T15:53:52.172Z,17.62
2022-10-13T15:56:20.076Z,17.62
2022-10-13T15:58:48.170Z,17.63
2022-10-13T16:01:17.429Z,17.65
2022-10-13T16:03:45.261Z,17.70
2022-10-13T16:06:15.440Z,17.69
2022-10-13T16:08:44.807Z,17.73
2022-10-13T16:11:15.262Z,17.70
2022-10-13T16:13:46.304Z,17.69
2022-10-13T16:16:14.487Z,17.69
2022-10-13T16:18:46.233Z,17.68
2022-10-13T16:21:18.881Z,17.68
2022-10-13T16:23:48.019Z,17.66
2022-10-13T16:26:17.406Z,17.55
2022-10-13T16:28:45.698Z,17.60
2022-10-13T16:31:16.224Z,17.61
2022-10-13T16:33:46.719Z,17.62
2022-10-13T16:36:18.301Z,17.54
2022-10-13T16:38:47.550Z,17.58
2022-10-13T16:41:17.031Z,17.58
2022-10-13T16:43:45.651Z,17.58
2022-10-13T16:46:15.631Z,17.53
2022-10-13T16:48:46.199Z,17.55
2022-10-13T16:51:16.932Z,17.54
2022-10-13T16:53:48.791Z,17.54
2022-10-13T16:56:21.214Z,17.55
2022-10-13T16:58:50.068Z,17.56
2022-10-13T17:01:18.018Z,17.53
2022-10-13T17:03:48.579Z,17.56
2022-10-13T17:06:17.104Z,17.57
2022-10-13T17:08:45.782Z,17.57
2022-10-13T17:11:18.519Z,17.58
2022-10-13T17:13:46.547Z,17.54
2022-10-13T17:16:15.025Z,17.55
2022-10-13T17:18:43.429Z,17.49
2022-10-13T17:21:14.333Z,17.47
2022-10-13T17:23:47.335Z,17.45
2022-10-13T17:26:18.112Z,17.46
2022-10-13T17:28:46.339Z,17.42
2022-10-13T17:31:16.793Z,17.44
2022-10-13T17:33:46.201Z,17.43
2022-10-13T17:36:20.750Z,17.32
2022-10-13T17:38:50.093Z,17.31
2022-10-13T17:41:18.994Z,17.25
2022-10-13T17:43:47.484Z,17.21
2022-10-13T17:46:35.568Z,17.19
2022-10-13T17:49:05.305Z,17.16
2022-10-13T17:51:36.751Z,17.12
2022-10-13T17:54:05.375Z,17.12
2022-10-13T17:56:33.673Z,17.10
2022-10-13T17:59:02.097Z,17.06
2022-10-13T18:01:31.862Z,17.06
2022-10-13T18:04:02.688Z,17.02
2022-10-13T18:06:37.941Z,17.02
2022-10-13T18:09:09.223Z,16.96
2022-10-13T18:11:38.079Z,16.86
2022-10-13T18:14:06.346Z,16.77
2022-10-13T18:16:34.639Z,16.72
2022-10-13T18:19:02.967Z,16.67
2022-10-13T18:21:30.835Z,16.62
2022-10-13T18:24:01.304Z,16.62
2022-10-13T18:26:35.073Z,16.63
2022-10-13T18:29:03.521Z,16.59
2022-10-13T18:31:33.618Z,16.58
2022-10-13T18:34:03.611Z,16.55
2022-10-13T18:36:40.163Z,16.55
2022-10-13T18:39:10.431Z,16.55
2022-10-13T18:41:40.217Z,16.53
2022-10-13T18:44:08.975Z,16.53
2022-10-13T18:46:38.623Z,16.49
2022-10-13T18:49:10.686Z,16.46
2022-10-13T18:51:38.634Z,16.44
2022-10-13T18:54:07.378Z,16.44
2022-10-13T18:56:36.829Z,16.45
2022-10-13T18:59:08.209Z,16.42
2022-10-13T19:01:38.012Z,16.41
2022-10-13T19:04:06.884Z,16.43
2022-10-13T19:06:35.701Z,16.46
2022-10-13T19:09:05.799Z,16.41
2022-10-13T19:11:34.568Z,16.41
2022-10-13T19:14:03.254Z,16.40
2022-10-13T19:16:33.554Z,16.40
2022-10-13T19:19:01.464Z,16.36
2022-10-13T19:21:29.597Z,16.31
2022-10-13T19:24:00.308Z,16.28
2022-10-13T19:26:31.677Z,16.25
2022-10-13T19:29:02.363Z,16.25
2022-10-13T19:31:33.798Z,16.23
2022-10-13T19:34:02.512Z,16.22
2022-10-13T19:36:33.144Z,16.19
2022-10-13T19:39:02.537Z,16.21
2022-10-13T19:41:33.093Z,16.20
2022-10-13T19:44:01.872Z,16.19
2022-10-13T19:46:30.498Z,16.22
2022-10-13T19:49:00.456Z,16.17
2022-10-13T19:51:28.452Z,16.15
2022-10-13T19:53:56.393Z,16.15
2022-10-13T19:56:27.148Z,16.15
2022-10-13T19:58:55.498Z,16.16
2022-10-13T20:01:23.752Z,16.12
2022-10-13T20:03:55.202Z,16.17
2022-10-13T20:06:24.980Z,16.14
2022-10-13T20:08:52.912Z,16.12
2022-10-13T20:11:24.006Z,16.14
2022-10-13T20:13:52.628Z,16.16
2022-10-13T20:16:23.099Z,16.15
2022-10-13T20:18:53.494Z,16.10
2022-10-13T20:21:22.359Z,16.16
2022-10-13T20:23:52.021Z,16.17
2022-10-13T20:26:20.880Z,16.12
2022-10-13T20:28:50.100Z,16.16
2022-10-13T20:31:19.836Z,16.16
2022-10-13T20:33:49.422Z,16.04
2022-10-13T20:36:18.812Z,16.05
2022-10-13T20:38:53.378Z,16.01
2022-10-13T20:41:23.435Z,16.05
2022-10-13T20:43:59.818Z,16.03
2022-10-13T20:46:28.270Z,16.01
2022-10-13T20:49:13.323Z,16.05
2022-10-13T20:51:42.754Z,16.07
2022-10-13T20:54:13.880Z,16.07
2022-10-13T20:56:44.140Z,16.01
2022-10-13T20:59:14.707Z,16.02
2022-10-13T21:01:42.749Z,15.94
2022-10-13T21:04:11.239Z,15.99
2022-10-13T21:06:39.843Z,15.97
2022-10-13T21:09:07.945Z,15.97
2022-10-13T21:11:38.005Z,15.96
2022-10-13T21:14:07.086Z,15.98
2022-10-13T21:16:35.786Z,16.01
2022-10-13T21:19:04.591Z,16.04
2022-10-13T21:21:34.041Z,16.06
2022-10-13T21:24:04.517Z,16.06
2022-10-13T21:26:33.485Z,16.01
2022-10-13T21:29:02.989Z,15.96
2022-10-13T21:31:31.690Z,16.00
2022-10-13T21:33:59.776Z,15.92
2022-10-13T21:36:29.034Z,15.96
2022-10-13T21:38:59.747Z,15.95
2022-10-13T21:41:28.205Z,15.91
2022-10-13T21:43:56.384Z,15.83
2022-10-13T21:46:27.319Z,15.90
2022-10-13T21:48:56.784Z,15.91
2022-10-13T21:51:26.630Z,15.83
2022-10-13T21:53:56.566Z,15.86
2022-10-13T21:56:28.492Z,15.82
2022-10-13T21:58:57.401Z,15.89
2022-10-13T22:01:29.643Z,15.86
2022-10-13T22:03:59.980Z,15.90
2022-10-13T22:06:29.781Z,15.90
2022-10-13T22:08:59.534Z,15.89
2022-10-13T22:11:30.016Z,15.92
2022-10-13T22:13:58.557Z,15.91
2022-10-13T22:16:30.108Z,15.91
2022-10-13T22:18:59.279Z,15.88
2022-10-13T22:21:30.055Z,15.91
2022-10-13T22:23:59.286Z,15.91
2022-10-13T22:26:29.821Z,15.88
2022-10-13T22:28:58.386Z,15.80
2022-10-13T22:31:28.540Z,15.84
2022-10-13T22:33:56.723Z,15.89
2022-10-13T22:36:26.308Z,15.84
2022-10-13T22:38:56.436Z,15.91
2022-10-13T22:41:24.546Z,15.91
2022-10-13T22:43:53.757Z,15.78
2022-10-13T22:46:24.368Z,15.86
2022-10-13T22:48:53.886Z,15.94
2022-10-13T22:51:23.463Z,15.98
2022-10-13T22:53:52.112Z,15.99
2022-10-13T22:56:22.069Z,15.96
2022-10-13T22:58:51.146Z,16.01
2022-10-13T23:01:19.100Z,16.01
2022-10-13T23:03:48.952Z,15.90
2022-10-13T23:06:20.399Z,15.93
2022-10-13T23:08:48.596Z,15.96
2022-10-13T23:11:16.916Z,15.96
2022-10-13T23:13:45.172Z,15.98
2022-10-13T23:16:14.828Z,16.03
2022-10-13T23:18:42.786Z,16.04
2022-10-13T23:21:13.844Z,16.00
2022-10-13T23:23:43.423Z,16.01
2022-10-13T23:26:13.383Z,16.02
2022-10-13T23:28:41.702Z,16.02
2022-10-13T23:31:12.557Z,15.99
2022-10-13T23:33:40.805Z,16.00
2022-10-13T23:36:10.209Z,16.00
2022-10-13T23:38:38.661Z,15.96
2022-10-13T23:41:09.460Z,16.05
2022-10-13T23:43:37.845Z,16.02
2022-10-13T23:46:06.043Z,16.01
2022-10-13T23:48:34.269Z,16.01
2022-10-13T23:51:07.736Z,16.10
2022-10-13T23:53:37.361Z,16.12
2022-10-13T23:56:07.685Z,16.16
2022-10-13T23:58:37.118Z,16.04
